sensor_id;sensor_type;location;lat;lon;timestamp;P1;durP1;ratioP1;P2;durP2;ratioP2
46889;SDS011;32625;51.080;16.970;2023-04-24T00:02:03;26.00;;;18.48;;
46889;SDS011;32625;51.080;16.970;2023-04-24T00:04:33;26.85;;;18.77;;
46889;SDS011;32625;51.080;16.970;2023-04-24T00:07:00;27.25;;;18.40;;
46889;SDS011;32625;51.080;16.970;2023-04-24T00:09:27;23.75;;;17.63;;
46889;SDS011;32625;51.080;16.970;2023-04-24T00:11:55;22.48;;;17.38;;
46889;SDS011;32625;51.080;16.970;2023-04-24T00:14:22;21.98;;;16.98;;
46889;SDS011;32625;51.080;16.970;2023-04-24T00:16:49;22.95;;;18.83;;
46889;SDS011;32625;51.080;16.970;2023-04-24T00:19:17;22.48;;;17.85;;
46889;SDS011;32625;51.080;16.970;2023-04-24T00:21:47;21.48;;;17.33;;
46889;SDS011;32625;51.080;16.970;2023-04-24T00:24:17;19.25;;;16.17;;
46889;SDS011;32625;51.080;16.970;2023-04-24T00:26:44;23.10;;;17.08;;
46889;SDS011;32625;51.080;16.970;2023-04-24T00:29:12;21.83;;;16.65;;
46889;SDS011;32625;51.080;16.970;2023-04-24T00:31:39;21.95;;;16.05;;
46889;SDS011;32625;51.080;16.970;2023-04-24T00:34:06;21.98;;;16.27;;
46889;SDS011;32625;51.080;16.970;2023-04-24T00:36:34;23.13;;;15.38;;
46889;SDS011;32625;51.080;16.970;2023-04-24T00:39:01;23.55;;;15.60;;
46889;SDS011;32625;51.080;16.970;2023-04-24T00:41:29;19.52;;;16.23;;
46889;SDS011;32625;51.080;16.970;2023-04-24T00:43:56;18.85;;;14.80;;
46889;SDS011;32625;51.080;16.970;2023-04-24T00:46:24;21.05;;;15.18;;
46889;SDS011;32625;51.080;16.970;2023-04-24T00:48:52;20.55;;;16.02;;
46889;SDS011;32625;51.080;16.970;2023-04-24T00:51:19;20.55;;;16.15;;
46889;SDS011;32625;51.080;16.970;2023-04-24T00:53:47;22.48;;;16.23;;
46889;SDS011;32625;51.080;16.970;2023-04-24T00:56:14;19.23;;;14.98;;
46889;SDS011;32625;51.080;16.970;2023-04-24T00:58:42;19.20;;;15.45;;
46889;SDS011;32625;51.080;16.970;2023-04-24T01:01:10;18.52;;;14.95;;
46889;SDS011;32625;51.080;16.970;2023-04-24T01:03:38;20.83;;;14.88;;
46889;SDS011;32625;51.080;16.970;2023-04-24T01:06:07;20.25;;;15.50;;
46889;SDS011;32625;51.080;16.970;2023-04-24T01:08:35;16.42;;;13.75;;
46889;SDS011;32625;51.080;16.970;2023-04-24T01:11:04;24.15;;;15.88;;
46889;SDS011;32625;51.080;16.970;2023-04-24T01:13:32;19.05;;;15.18;;
46889;SDS011;32625;51.080;16.970;2023-04-24T01:16:00;18.65;;;14.10;;
46889;SDS011;32625;51.080;16.970;2023-04-24T01:18:27;17.95;;;14.07;;
46889;SDS011;32625;51.080;16.970;2023-04-24T01:20:57;21.70;;;15.15;;
46889;SDS011;32625;51.080;16.970;2023-04-24T01:23:26;17.75;;;15.20;;
46889;SDS011;32625;51.080;16.970;2023-04-24T01:25:53;19.45;;;14.65;;
46889;SDS011;32625;51.080;16.970;2023-04-24T01:28:20;22.08;;;14.63;;
46889;SDS011;32625;51.080;16.970;2023-04-24T01:30:48;17.90;;;15.05;;
46889;SDS011;32625;51.080;16.970;2023-04-24T01:33:16;19.15;;;14.30;;
46889;SDS011;32625;51.080;16.970;2023-04-24T01:35:43;16.48;;;13.80;;
46889;SDS011;32625;51.080;16.970;2023-04-24T01:38:11;21.35;;;13.77;;
46889;SDS011;32625;51.080;16.970;2023-04-24T01:40:38;25.80;;;14.52;;
46889;SDS011;32625;51.080;16.970;2023-04-24T01:43:05;20.25;;;14.15;;
46889;SDS011;32625;51.080;16.970;2023-04-24T01:45:33;18.20;;;14.77;;
46889;SDS011;32625;51.080;16.970;2023-04-24T01:48:03;20.40;;;14.88;;
46889;SDS011;32625;51.080;16.970;2023-04-24T01:50:30;18.55;;;14.05;;
46889;SDS011;32625;51.080;16.970;2023-04-24T01:52:57;18.88;;;14.90;;
46889;SDS011;32625;51.080;16.970;2023-04-24T01:55:25;23.60;;;14.80;;
46889;SDS011;32625;51.080;16.970;2023-04-24T01:57:52;19.73;;;14.80;;
46889;SDS011;32625;51.080;16.970;2023-04-24T02:00:22;18.88;;;14.50;;
46889;SDS011;32625;51.080;16.970;2023-04-24T02:02:52;20.00;;;15.13;;
46889;SDS011;32625;51.080;16.970;2023-04-24T02:05:19;17.75;;;13.98;;
46889;SDS011;32625;51.080;16.970;2023-04-24T02:07:47;17.58;;;14.20;;
46889;SDS011;32625;51.080;16.970;2023-04-24T02:10:14;18.05;;;14.32;;
46889;SDS011;32625;51.080;16.970;2023-04-24T02:12:41;21.38;;;15.63;;
46889;SDS011;32625;51.080;16.970;2023-04-24T02:15:09;21.73;;;16.40;;
46889;SDS011;32625;51.080;16.970;2023-04-24T02:17:36;17.88;;;14.98;;
46889;SDS011;32625;51.080;16.970;2023-04-24T02:20:04;18.23;;;14.50;;
46889;SDS011;32625;51.080;16.970;2023-04-24T02:22:33;17.38;;;14.13;;
46889;SDS011;32625;51.080;16.970;2023-04-24T02:25:01;16.60;;;14.45;;
46889;SDS011;32625;51.080;16.970;2023-04-24T02:27:28;19.60;;;15.05;;
46889;SDS011;32625;51.080;16.970;2023-04-24T02:29:56;16.77;;;14.82;;
46889;SDS011;32625;51.080;16.970;2023-04-24T02:32:23;17.90;;;14.27;;
46889;SDS011;32625;51.080;16.970;2023-04-24T02:34:50;15.98;;;14.27;;
46889;SDS011;32625;51.080;16.970;2023-04-24T02:37:17;22.58;;;15.23;;
46889;SDS011;32625;51.080;16.970;2023-04-24T02:39:44;18.55;;;12.82;;
46889;SDS011;32625;51.080;16.970;2023-04-24T02:42:12;16.38;;;13.38;;
46889;SDS011;32625;51.080;16.970;2023-04-24T02:44:39;18.60;;;13.43;;
46889;SDS011;32625;51.080;16.970;2023-04-24T02:47:07;17.55;;;13.80;;
46889;SDS011;32625;51.080;16.970;2023-04-24T02:49:35;20.45;;;13.68;;
46889;SDS011;32625;51.080;16.970;2023-04-24T02:52:02;19.05;;;14.75;;
46889;SDS011;32625;51.080;16.970;2023-04-24T02:54:29;18.15;;;14.18;;
46889;SDS011;32625;51.080;16.970;2023-04-24T02:56:56;17.30;;;13.68;;
46889;SDS011;32625;51.080;16.970;2023-04-24T02:59:24;18.83;;;15.60;;
46889;SDS011;32625;51.080;16.970;2023-04-24T03:01:53;18.30;;;14.30;;
46889;SDS011;32625;51.080;16.970;2023-04-24T03:04:21;21.67;;;16.08;;
46889;SDS011;32625;51.080;16.970;2023-04-24T03:06:49;17.88;;;14.63;;
46889;SDS011;32625;51.080;16.970;2023-04-24T03:09:19;19.25;;;15.43;;
46889;SDS011;32625;51.080;16.970;2023-04-24T03:11:47;18.35;;;15.32;;
46889;SDS011;32625;51.080;16.970;2023-04-24T03:14:15;15.98;;;13.60;;
46889;SDS011;32625;51.080;16.970;2023-04-24T03:16:42;23.35;;;13.98;;
46889;SDS011;32625;51.080;16.970;2023-04-24T03:19:10;19.23;;;15.02;;
46889;SDS011;32625;51.080;16.970;2023-04-24T03:21:45;19.50;;;15.38;;
46889;SDS011;32625;51.080;16.970;2023-04-24T03:24:13;20.65;;;15.52;;
46889;SDS011;32625;51.080;16.970;2023-04-24T03:26:40;19.83;;;16.52;;
46889;SDS011;32625;51.080;16.970;2023-04-24T03:29:24;20.88;;;15.80;;
46889;SDS011;32625;51.080;16.970;2023-04-24T03:31:52;20.58;;;16.38;;
46889;SDS011;32625;51.080;16.970;2023-04-24T03:34:20;16.35;;;14.65;;
46889;SDS011;32625;51.080;16.970;2023-04-24T03:36:48;18.40;;;14.95;;
46889;SDS011;32625;51.080;16.970;2023-04-24T03:39:15;18.95;;;16.45;;
46889;SDS011;32625;51.080;16.970;2023-04-24T03:41:49;19.13;;;15.98;;
46889;SDS011;32625;51.080;16.970;2023-04-24T03:44:21;20.48;;;15.30;;
46889;SDS011;32625;51.080;16.970;2023-04-24T03:46:49;19.80;;;15.00;;
46889;SDS011;32625;51.080;16.970;2023-04-24T03:49:19;19.77;;;15.75;;
46889;SDS011;32625;51.080;16.970;2023-04-24T03:51:47;23.50;;;13.95;;
46889;SDS011;32625;51.080;16.970;2023-04-24T03:54:24;16.63;;;14.15;;
46889;SDS011;32625;51.080;16.970;2023-04-24T03:56:52;17.83;;;15.20;;
46889;SDS011;32625;51.080;16.970;2023-04-24T03:59:22;16.80;;;14.10;;
46889;SDS011;32625;51.080;16.970;2023-04-24T04:02:03;19.67;;;15.13;;
46889;SDS011;32625;51.080;16.970;2023-04-24T04:04:31;15.88;;;13.95;;
46889;SDS011;32625;51.080;16.970;2023-04-24T04:06:59;18.33;;;14.63;;
46889;SDS011;32625;51.080;16.970;2023-04-24T04:09:35;21.15;;;16.00;;
46889;SDS011;32625;51.080;16.970;2023-04-24T04:12:02;19.70;;;14.70;;
46889;SDS011;32625;51.080;16.970;2023-04-24T04:14:32;16.90;;;15.10;;
46889;SDS011;32625;51.080;16.970;2023-04-24T04:17:00;19.55;;;16.25;;
46889;SDS011;32625;51.080;16.970;2023-04-24T04:19:27;18.48;;;16.30;;
46889;SDS011;32625;51.080;16.970;2023-04-24T04:21:55;22.15;;;16.25;;
46889;SDS011;32625;51.080;16.970;2023-04-24T04:24:52;17.38;;;15.32;;
46889;SDS011;32625;51.080;16.970;2023-04-24T04:27:24;17.30;;;15.50;;
46889;SDS011;32625;51.080;16.970;2023-04-24T04:29:59;20.73;;;16.10;;
46889;SDS011;32625;51.080;16.970;2023-04-24T04:32:40;20.88;;;17.92;;
46889;SDS011;32625;51.080;16.970;2023-04-24T04:35:08;17.35;;;15.55;;
46889;SDS011;32625;51.080;16.970;2023-04-24T04:37:36;19.50;;;16.10;;
46889;SDS011;32625;51.080;16.970;2023-04-24T04:40:18;17.67;;;15.77;;
46889;SDS011;32625;51.080;16.970;2023-04-24T04:42:56;20.50;;;16.90;;
46889;SDS011;32625;51.080;16.970;2023-04-24T04:45:26;16.27;;;14.05;;
46889;SDS011;32625;51.080;16.970;2023-04-24T04:48:11;16.08;;;13.55;;
46889;SDS011;32625;51.080;16.970;2023-04-24T04:50:40;17.13;;;13.77;;
46889;SDS011;32625;51.080;16.970;2023-04-24T04:53:08;19.15;;;14.23;;
46889;SDS011;32625;51.080;16.970;2023-04-24T04:55:37;17.60;;;14.50;;
46889;SDS011;32625;51.080;16.970;2023-04-24T04:58:09;16.90;;;13.48;;
46889;SDS011;32625;51.080;16.970;2023-04-24T05:00:37;15.95;;;13.10;;
46889;SDS011;32625;51.080;16.970;2023-04-24T05:03:27;16.05;;;13.60;;
46889;SDS011;32625;51.080;16.970;2023-04-24T05:05:59;16.70;;;14.20;;
46889;SDS011;32625;51.080;16.970;2023-04-24T05:08:28;15.00;;;13.25;;
46889;SDS011;32625;51.080;16.970;2023-04-24T05:10:55;18.20;;;14.07;;
46889;SDS011;32625;51.080;16.970;2023-04-24T05:13:25;16.17;;;12.65;;
46889;SDS011;32625;51.080;16.970;2023-04-24T05:16:09;16.00;;;14.30;;
46889;SDS011;32625;51.080;16.970;2023-04-24T05:18:37;17.60;;;12.93;;
46889;SDS011;32625;51.080;16.970;2023-04-24T05:21:06;15.90;;;13.63;;
46889;SDS011;32625;51.080;16.970;2023-04-24T05:23:35;17.15;;;12.60;;
46889;SDS011;32625;51.080;16.970;2023-04-24T05:26:02;16.58;;;13.80;;
46889;SDS011;32625;51.080;16.970;2023-04-24T05:28:34;16.75;;;13.93;;
46889;SDS011;32625;51.080;16.970;2023-04-24T05:31:07;13.98;;;12.55;;
46889;SDS011;32625;51.080;16.970;2023-04-24T05:33:35;18.17;;;13.05;;
46889;SDS011;32625;51.080;16.970;2023-04-24T05:36:02;19.02;;;12.63;;
46889;SDS011;32625;51.080;16.970;2023-04-24T05:38:30;16.33;;;13.13;;
46889;SDS011;32625;51.080;16.970;2023-04-24T05:40:59;14.90;;;11.82;;
46889;SDS011;32625;51.080;16.970;2023-04-24T05:43:26;14.57;;;12.93;;
46889;SDS011;32625;51.080;16.970;2023-04-24T05:45:53;16.27;;;12.73;;
46889;SDS011;32625;51.080;16.970;2023-04-24T05:48:22;15.73;;;12.70;;
46889;SDS011;32625;51.080;16.970;2023-04-24T05:50:49;17.30;;;11.77;;
46889;SDS011;32625;51.080;16.970;2023-04-24T05:53:17;14.63;;;10.88;;
46889;SDS011;32625;51.080;16.970;2023-04-24T05:55:44;11.88;;;10.40;;
46889;SDS011;32625;51.080;16.970;2023-04-24T05:58:12;15.20;;;11.32;;
46889;SDS011;32625;51.080;16.970;2023-04-24T06:00:39;12.38;;;9.75;;
46889;SDS011;32625;51.080;16.970;2023-04-24T06:03:09;13.20;;;9.85;;
46889;SDS011;32625;51.080;16.970;2023-04-24T06:05:36;14.30;;;9.93;;
46889;SDS011;32625;51.080;16.970;2023-04-24T06:08:03;9.70;;;8.48;;
46889;SDS011;32625;51.080;16.970;2023-04-24T06:10:35;16.02;;;7.88;;
46889;SDS011;32625;51.080;16.970;2023-04-24T06:13:03;9.38;;;7.32;;
46889;SDS011;32625;51.080;16.970;2023-04-24T06:15:32;10.90;;;9.05;;
46889;SDS011;32625;51.080;16.970;2023-04-24T06:18:09;9.55;;;6.95;;
46889;SDS011;32625;51.080;16.970;2023-04-24T06:20:40;11.20;;;7.80;;
46889;SDS011;32625;51.080;16.970;2023-04-24T06:23:08;10.82;;;7.93;;
46889;SDS011;32625;51.080;16.970;2023-04-24T06:25:36;11.00;;;7.20;;
46889;SDS011;32625;51.080;16.970;2023-04-24T06:28:04;7.65;;;6.80;;
46889;SDS011;32625;51.080;16.970;2023-04-24T06:30:31;8.95;;;6.78;;
46889;SDS011;32625;51.080;16.970;2023-04-24T06:32:58;13.88;;;7.47;;
46889;SDS011;32625;51.080;16.970;2023-04-24T06:35:47;10.00;;;8.18;;
46889;SDS011;32625;51.080;16.970;2023-04-24T06:38:14;8.07;;;7.18;;
46889;SDS011;32625;51.080;16.970;2023-04-24T06:40:42;14.55;;;7.15;;
46889;SDS011;32625;51.080;16.970;2023-04-24T06:43:10;11.63;;;7.35;;
46889;SDS011;32625;51.080;16.970;2023-04-24T06:45:38;12.52;;;7.43;;
46889;SDS011;32625;51.080;16.970;2023-04-24T06:48:06;8.45;;;7.50;;
46889;SDS011;32625;51.080;16.970;2023-04-24T06:50:33;10.43;;;7.63;;
46889;SDS011;32625;51.080;16.970;2023-04-24T06:53:00;13.60;;;6.60;;
46889;SDS011;32625;51.080;16.970;2023-04-24T06:55:27;11.60;;;7.88;;
46889;SDS011;32625;51.080;16.970;2023-04-24T06:57:57;13.80;;;8.75;;
46889;SDS011;32625;51.080;16.970;2023-04-24T07:00:25;10.63;;;7.25;;
46889;SDS011;32625;51.080;16.970;2023-04-24T07:02:52;11.60;;;8.20;;
46889;SDS011;32625;51.080;16.970;2023-04-24T07:05:19;8.93;;;7.70;;
46889;SDS011;32625;51.080;16.970;2023-04-24T07:07:47;11.40;;;8.55;;
46889;SDS011;32625;51.080;16.970;2023-04-24T07:10:15;9.75;;;7.55;;
46889;SDS011;32625;51.080;16.970;2023-04-24T07:12:42;10.60;;;8.60;;
46889;SDS011;32625;51.080;16.970;2023-04-24T07:15:09;9.82;;;7.30;;
46889;SDS011;32625;51.080;16.970;2023-04-24T07:17:37;15.18;;;8.00;;
46889;SDS011;32625;51.080;16.970;2023-04-24T07:20:05;10.90;;;7.53;;
46889;SDS011;32625;51.080;16.970;2023-04-24T07:22:36;11.85;;;7.07;;
46889;SDS011;32625;51.080;16.970;2023-04-24T07:25:04;8.55;;;7.28;;
46889;SDS011;32625;51.080;16.970;2023-04-24T07:27:31;8.75;;;7.78;;
46889;SDS011;32625;51.080;16.970;2023-04-24T07:29:58;9.95;;;7.22;;
46889;SDS011;32625;51.080;16.970;2023-04-24T07:32:26;11.00;;;8.63;;
46889;SDS011;32625;51.080;16.970;2023-04-24T07:34:53;12.75;;;7.25;;
46889;SDS011;32625;51.080;16.970;2023-04-24T07:37:20;15.75;;;7.15;;
46889;SDS011;32625;51.080;16.970;2023-04-24T07:39:47;16.52;;;7.50;;
46889;SDS011;32625;51.080;16.970;2023-04-24T07:42:15;13.98;;;7.05;;
46889;SDS011;32625;51.080;16.970;2023-04-24T07:44:42;11.60;;;7.32;;
46889;SDS011;32625;51.080;16.970;2023-04-24T07:47:09;12.52;;;7.63;;
46889;SDS011;32625;51.080;16.970;2023-04-24T07:49:37;10.55;;;7.07;;
46889;SDS011;32625;51.080;16.970;2023-04-24T07:52:04;12.50;;;6.88;;
46889;SDS011;32625;51.080;16.970;2023-04-24T07:54:31;13.00;;;7.07;;
46889;SDS011;32625;51.080;16.970;2023-04-24T07:56:58;9.60;;;6.60;;
46889;SDS011;32625;51.080;16.970;2023-04-24T07:59:27;6.78;;;5.55;;
46889;SDS011;32625;51.080;16.970;2023-04-24T08:01:54;6.45;;;5.38;;
46889;SDS011;32625;51.080;16.970;2023-04-24T08:04:21;9.27;;;5.82;;
46889;SDS011;32625;51.080;16.970;2023-04-24T08:06:48;13.20;;;5.85;;
46889;SDS011;32625;51.080;16.970;2023-04-24T08:09:16;9.85;;;5.15;;
46889;SDS011;32625;51.080;16.970;2023-04-24T08:11:43;8.18;;;4.90;;
46889;SDS011;32625;51.080;16.970;2023-04-24T08:14:10;5.90;;;5.30;;
46889;SDS011;32625;51.080;16.970;2023-04-24T08:16:39;8.32;;;5.07;;
46889;SDS011;32625;51.080;16.970;2023-04-24T08:19:07;5.78;;;5.28;;
46889;SDS011;32625;51.080;16.970;2023-04-24T08:21:34;9.10;;;5.35;;
46889;SDS011;32625;51.080;16.970;2023-04-24T08:24:01;7.50;;;5.45;;
46889;SDS011;32625;51.080;16.970;2023-04-24T08:26:31;6.22;;;5.47;;
46889;SDS011;32625;51.080;16.970;2023-04-24T08:28:58;6.65;;;5.47;;
46889;SDS011;32625;51.080;16.970;2023-04-24T08:31:25;6.85;;;5.50;;
46889;SDS011;32625;51.080;16.970;2023-04-24T08:33:53;7.50;;;5.93;;
46889;SDS011;32625;51.080;16.970;2023-04-24T08:36:20;6.20;;;5.07;;
46889;SDS011;32625;51.080;16.970;2023-04-24T08:38:58;7.68;;;6.03;;
46889;SDS011;32625;51.080;16.970;2023-04-24T08:41:26;7.70;;;5.60;;
46889;SDS011;32625;51.080;16.970;2023-04-24T08:43:53;6.45;;;4.90;;
46889;SDS011;32625;51.080;16.970;2023-04-24T08:46:24;7.25;;;5.63;;
46889;SDS011;32625;51.080;16.970;2023-04-24T08:48:52;7.72;;;5.10;;
46889;SDS011;32625;51.080;16.970;2023-04-24T08:51:19;12.75;;;4.88;;
46889;SDS011;32625;51.080;16.970;2023-04-24T08:53:47;5.90;;;5.40;;
46889;SDS011;32625;51.080;16.970;2023-04-24T08:56:15;7.57;;;5.10;;
46889;SDS011;32625;51.080;16.970;2023-04-24T08:58:43;6.30;;;4.97;;
46889;SDS011;32625;51.080;16.970;2023-04-24T09:01:10;17.95;;;7.70;;
46889;SDS011;32625;51.080;16.970;2023-04-24T09:03:38;27.13;;;7.88;;
46889;SDS011;32625;51.080;16.970;2023-04-24T09:06:06;22.75;;;6.38;;
46889;SDS011;32625;51.080;16.970;2023-04-24T09:08:35;12.75;;;6.00;;
46889;SDS011;32625;51.080;16.970;2023-04-24T09:11:03;12.23;;;6.68;;
46889;SDS011;32625;51.080;16.970;2023-04-24T09:13:31;18.77;;;6.72;;
46889;SDS011;32625;51.080;16.970;2023-04-24T09:16:00;12.30;;;7.13;;
46889;SDS011;32625;51.080;16.970;2023-04-24T09:18:27;7.78;;;5.95;;
46889;SDS011;32625;51.080;16.970;2023-04-24T09:20:57;18.27;;;6.95;;
46889;SDS011;32625;51.080;16.970;2023-04-24T09:23:33;19.17;;;7.18;;
46889;SDS011;32625;51.080;16.970;2023-04-24T09:26:01;19.90;;;7.25;;
46889;SDS011;32625;51.080;16.970;2023-04-24T09:28:32;18.98;;;6.70;;
46889;SDS011;32625;51.080;16.970;2023-04-24T09:31:18;12.95;;;6.82;;
46889;SDS011;32625;51.080;16.970;2023-04-24T09:33:55;11.63;;;6.50;;
46889;SDS011;32625;51.080;16.970;2023-04-24T09:36:34;7.50;;;6.80;;
46889;SDS011;32625;51.080;16.970;2023-04-24T09:39:08;7.57;;;6.45;;
46889;SDS011;32625;51.080;16.970;2023-04-24T09:41:46;9.52;;;6.35;;
46889;SDS011;32625;51.080;16.970;2023-04-24T09:44:20;6.65;;;5.95;;
46889;SDS011;32625;51.080;16.970;2023-04-24T09:46:49;7.53;;;6.55;;
46889;SDS011;32625;51.080;16.970;2023-04-24T09:49:25;7.53;;;6.22;;
46889;SDS011;32625;51.080;16.970;2023-04-24T09:52:09;7.75;;;6.95;;
46889;SDS011;32625;51.080;16.970;2023-04-24T09:54:37;7.13;;;6.43;;
46889;SDS011;32625;51.080;16.970;2023-04-24T09:57:06;7.05;;;6.38;;
46889;SDS011;32625;51.080;16.970;2023-04-24T09:59:34;7.22;;;6.47;;
46889;SDS011;32625;51.080;16.970;2023-04-24T10:02:02;8.18;;;7.03;;
46889;SDS011;32625;51.080;16.970;2023-04-24T10:04:53;8.30;;;7.13;;
46889;SDS011;32625;51.080;16.970;2023-04-24T10:07:22;7.35;;;6.18;;
46889;SDS011;32625;51.080;16.970;2023-04-24T10:09:54;8.32;;;7.40;;
46889;SDS011;32625;51.080;16.970;2023-04-24T10:12:22;7.60;;;6.50;;
46889;SDS011;32625;51.080;16.970;2023-04-24T10:14:51;7.43;;;6.55;;
46889;SDS011;32625;51.080;16.970;2023-04-24T10:17:19;8.68;;;7.15;;
46889;SDS011;32625;51.080;16.970;2023-04-24T10:19:48;7.65;;;6.47;;
46889;SDS011;32625;51.080;16.970;2023-04-24T10:22:16;7.95;;;7.00;;
46889;SDS011;32625;51.080;16.970;2023-04-24T10:24:44;6.97;;;6.28;;
46889;SDS011;32625;51.080;16.970;2023-04-24T10:27:13;8.38;;;6.13;;
46889;SDS011;32625;51.080;16.970;2023-04-24T10:29:42;11.80;;;6.47;;
46889;SDS011;32625;51.080;16.970;2023-04-24T10:32:11;9.60;;;7.07;;
46889;SDS011;32625;51.080;16.970;2023-04-24T10:34:38;8.02;;;6.15;;
46889;SDS011;32625;51.080;16.970;2023-04-24T10:37:05;6.38;;;5.70;;
46889;SDS011;32625;51.080;16.970;2023-04-24T10:39:33;6.53;;;5.65;;
46889;SDS011;32625;51.080;16.970;2023-04-24T10:42:01;10.00;;;6.03;;
46889;SDS011;32625;51.080;16.970;2023-04-24T10:44:39;9.90;;;6.10;;
46889;SDS011;32625;51.080;16.970;2023-04-24T10:47:12;6.13;;;5.53;;
46889;SDS011;32625;51.080;16.970;2023-04-24T10:49:40;9.50;;;5.97;;
46889;SDS011;32625;51.080;16.970;2023-04-24T10:52:08;8.15;;;6.20;;
46889;SDS011;32625;51.080;16.970;2023-04-24T10:54:36;9.07;;;6.40;;
46889;SDS011;32625;51.080;16.970;2023-04-24T10:59:50;7.43;;;6.50;;
46889;SDS011;32625;51.080;16.970;2023-04-24T11:02:36;9.02;;;6.43;;
46889;SDS011;32625;51.080;16.970;2023-04-24T11:05:05;7.78;;;7.07;;
46889;SDS011;32625;51.080;16.970;2023-04-24T11:19:04;9.82;;;6.60;;
46889;SDS011;32625;51.080;16.970;2023-04-24T11:21:41;11.10;;;6.68;;
46889;SDS011;32625;51.080;16.970;2023-04-24T11:27:13;9.63;;;7.13;;
46889;SDS011;32625;51.080;16.970;2023-04-24T11:29:47;7.57;;;6.53;;
46889;SDS011;32625;51.080;16.970;2023-04-24T11:35:07;6.78;;;6.10;;
46889;SDS011;32625;51.080;16.970;2023-04-24T11:37:36;6.20;;;5.22;;
46889;SDS011;32625;51.080;16.970;2023-04-24T11:40:04;8.25;;;5.53;;
46889;SDS011;32625;51.080;16.970;2023-04-24T11:42:36;8.85;;;5.00;;
46889;SDS011;32625;51.080;16.970;2023-04-24T11:45:15;8.65;;;4.78;;
46889;SDS011;32625;51.080;16.970;2023-04-24T11:47:48;12.02;;;6.10;;
46889;SDS011;32625;51.080;16.970;2023-04-24T11:50:16;10.82;;;5.97;;
46889;SDS011;32625;51.080;16.970;2023-04-24T11:52:46;6.18;;;5.57;;
46889;SDS011;32625;51.080;16.970;2023-04-24T11:57:44;6.82;;;5.30;;
46889;SDS011;32625;51.080;16.970;2023-04-24T12:00:16;7.40;;;4.97;;
46889;SDS011;32625;51.080;16.970;2023-04-24T12:02:44;8.95;;;5.25;;
46889;SDS011;32625;51.080;16.970;2023-04-24T12:07:53;9.50;;;6.30;;
46889;SDS011;32625;51.080;16.970;2023-04-24T12:10:24;17.52;;;5.57;;
46889;SDS011;32625;51.080;16.970;2023-04-24T12:12:52;15.60;;;4.97;;
46889;SDS011;32625;51.080;16.970;2023-04-24T12:15:20;9.48;;;4.75;;
46889;SDS011;32625;51.080;16.970;2023-04-24T12:17:50;5.57;;;5.03;;
46889;SDS011;32625;51.080;16.970;2023-04-24T12:20:26;6.95;;;4.78;;
46889;SDS011;32625;51.080;16.970;2023-04-24T12:22:58;11.73;;;5.45;;
46889;SDS011;32625;51.080;16.970;2023-04-24T12:25:30;26.50;;;5.72;;
46889;SDS011;32625;51.080;16.970;2023-04-24T12:30:43;18.48;;;6.72;;
46889;SDS011;32625;51.080;16.970;2023-04-24T12:33:18;17.20;;;6.53;;
46889;SDS011;32625;51.080;16.970;2023-04-24T12:35:47;26.48;;;6.88;;
46889;SDS011;32625;51.080;16.970;2023-04-24T12:38:21;17.67;;;7.50;;
46889;SDS011;32625;51.080;16.970;2023-04-24T12:41:00;13.77;;;6.22;;
46889;SDS011;32625;51.080;16.970;2023-04-24T12:43:31;9.98;;;6.13;;
46889;SDS011;32625;51.080;16.970;2023-04-24T12:45:59;14.73;;;5.55;;
46889;SDS011;32625;51.080;16.970;2023-04-24T12:48:26;10.25;;;5.97;;
46889;SDS011;32625;51.080;16.970;2023-04-24T12:50:54;8.40;;;5.57;;
46889;SDS011;32625;51.080;16.970;2023-04-24T12:53:23;8.85;;;5.20;;
46889;SDS011;32625;51.080;16.970;2023-04-24T12:55:53;6.85;;;5.57;;
46889;SDS011;32625;51.080;16.970;2023-04-24T12:58:20;5.28;;;4.55;;
46889;SDS011;32625;51.080;16.970;2023-04-24T13:00:47;5.75;;;3.83;;
46889;SDS011;32625;51.080;16.970;2023-04-24T13:03:14;5.53;;;3.50;;
46889;SDS011;32625;51.080;16.970;2023-04-24T13:05:42;4.38;;;2.80;;
46889;SDS011;32625;51.080;16.970;2023-04-24T13:08:10;4.55;;;3.15;;
46889;SDS011;32625;51.080;16.970;2023-04-24T13:10:39;5.63;;;2.63;;
46889;SDS011;32625;51.080;16.970;2023-04-24T13:13:07;9.95;;;3.25;;
46889;SDS011;32625;51.080;16.970;2023-04-24T13:15:35;4.63;;;3.05;;
46889;SDS011;32625;51.080;16.970;2023-04-24T13:18:02;5.45;;;3.25;;
46889;SDS011;32625;51.080;16.970;2023-04-24T13:20:30;5.95;;;3.30;;
46889;SDS011;32625;51.080;16.970;2023-04-24T13:22:57;6.53;;;3.58;;
46889;SDS011;32625;51.080;16.970;2023-04-24T13:25:24;9.13;;;3.40;;
46889;SDS011;32625;51.080;16.970;2023-04-24T13:27:52;7.10;;;3.92;;
46889;SDS011;32625;51.080;16.970;2023-04-24T13:30:20;5.95;;;3.80;;
46889;SDS011;32625;51.080;16.970;2023-04-24T13:32:47;4.82;;;4.00;;
46889;SDS011;32625;51.080;16.970;2023-04-24T13:35:14;6.90;;;3.80;;
46889;SDS011;32625;51.080;16.970;2023-04-24T13:37:41;11.13;;;3.80;;
46889;SDS011;32625;51.080;16.970;2023-04-24T13:40:08;6.35;;;3.22;;
46889;SDS011;32625;51.080;16.970;2023-04-24T13:42:36;5.47;;;4.00;;
46889;SDS011;32625;51.080;16.970;2023-04-24T13:45:04;11.73;;;3.28;;
46889;SDS011;32625;51.080;16.970;2023-04-24T13:47:49;5.13;;;3.22;;
46889;SDS011;32625;51.080;16.970;2023-04-24T13:50:18;6.38;;;3.22;;
46889;SDS011;32625;51.080;16.970;2023-04-24T13:52:45;4.93;;;3.33;;
46889;SDS011;32625;51.080;16.970;2023-04-24T13:55:12;6.43;;;3.15;;
46889;SDS011;32625;51.080;16.970;2023-04-24T13:57:39;4.90;;;2.80;;
46889;SDS011;32625;51.080;16.970;2023-04-24T14:00:07;5.15;;;3.30;;
46889;SDS011;32625;51.080;16.970;2023-04-24T14:02:37;6.80;;;3.47;;
46889;SDS011;32625;51.080;16.970;2023-04-24T14:05:05;4.57;;;2.80;;
46889;SDS011;32625;51.080;16.970;2023-04-24T14:07:33;6.82;;;3.03;;
46889;SDS011;32625;51.080;16.970;2023-04-24T14:10:00;6.88;;;2.83;;
46889;SDS011;32625;51.080;16.970;2023-04-24T14:12:27;5.78;;;3.28;;
46889;SDS011;32625;51.080;16.970;2023-04-24T14:14:55;5.07;;;2.80;;
46889;SDS011;32625;51.080;16.970;2023-04-24T14:17:22;3.92;;;2.67;;
46889;SDS011;32625;51.080;16.970;2023-04-24T14:19:49;4.32;;;3.08;;
46889;SDS011;32625;51.080;16.970;2023-04-24T14:22:18;5.93;;;2.90;;
46889;SDS011;32625;51.080;16.970;2023-04-24T14:24:45;5.10;;;2.80;;
46889;SDS011;32625;51.080;16.970;2023-04-24T14:27:12;3.80;;;2.70;;
46889;SDS011;32625;51.080;16.970;2023-04-24T14:29:39;5.47;;;2.90;;
46889;SDS011;32625;51.080;16.970;2023-04-24T14:32:07;4.43;;;2.97;;
46889;SDS011;32625;51.080;16.970;2023-04-24T14:34:35;3.20;;;2.50;;
46889;SDS011;32625;51.080;16.970;2023-04-24T14:37:02;3.63;;;2.75;;
46889;SDS011;32625;51.080;16.970;2023-04-24T14:39:30;4.70;;;2.80;;
46889;SDS011;32625;51.080;16.970;2023-04-24T14:41:57;5.15;;;2.88;;
46889;SDS011;32625;51.080;16.970;2023-04-24T14:44:24;4.35;;;3.38;;
46889;SDS011;32625;51.080;16.970;2023-04-24T14:46:51;6.78;;;3.72;;
46889;SDS011;32625;51.080;16.970;2023-04-24T14:49:20;7.95;;;5.68;;
46889;SDS011;32625;51.080;16.970;2023-04-24T14:51:47;6.95;;;4.72;;
46889;SDS011;32625;51.080;16.970;2023-04-24T14:54:14;5.97;;;4.53;;
46889;SDS011;32625;51.080;16.970;2023-04-24T14:56:41;10.35;;;4.53;;
46889;SDS011;32625;51.080;16.970;2023-04-24T14:59:10;3.60;;;2.83;;
46889;SDS011;32625;51.080;16.970;2023-04-24T15:01:37;4.45;;;2.88;;